sensor_id;sensor_type;location;lat;lon;timestamp;pressure;altitude;pressure_sealevel;temperature;humidity
35226;BME280;21813;49.686;21.766;2023-02-13T00:00:51;100368.00;;;-3.77;100.00
35226;BME280;21813;49.686;21.766;2023-02-13T00:03:22;100364.63;;;-3.73;100.00
35226;BME280;21813;49.686;21.766;2023-02-13T00:05:49;100357.81;;;-3.77;100.00
35226;BME280;21813;49.686;21.766;2023-02-13T00:08:14;100356.13;;;-3.74;100.00
35226;BME280;21813;49.686;21.766;2023-02-13T00:11:10;100361.28;;;-3.71;100.00
35226;BME280;21813;49.686;21.766;2023-02-13T00:13:36;100357.06;;;-3.67;100.00
35226;BME280;21813;49.686;21.766;2023-02-13T00:16:05;100346.84;;;-3.69;100.00
35226;BME280;21813;49.686;21.766;2023-02-13T00:18:37;100355.34;;;-3.65;100.00
35226;BME280;21813;49.686;21.766;2023-02-13T00:21:10;100360.44;;;-3.65;100.00
35226;BME280;21813;49.686;21.766;2023-02-13T00:23:37;100341.75;;;-3.70;100.00
35226;BME280;21813;49.686;21.766;2023-02-13T00:29:54;100345.16;;;-3.68;100.00
35226;BME280;21813;49.686;21.766;2023-02-13T00:32:24;100349.44;;;-3.66;100.00
35226;BME280;21813;49.686;21.766;2023-02-13T00:38:19;100350.16;;;-3.74;100.00
35226;BME280;21813;49.686;21.766;2023-02-13T00:44:38;100322.88;;;-3.90;100.00
35226;BME280;21813;49.686;21.766;2023-02-13T00:50:14;100320.28;;;-3.92;100.00
35226;BME280;21813;49.686;21.766;2023-02-13T00:52:43;100329.69;;;-3.89;100.00
35226;BME280;21813;49.686;21.766;2023-02-13T00:55:17;100328.81;;;-3.90;100.00
35226;BME280;21813;49.686;21.766;2023-02-13T00:57:47;100322.88;;;-3.90;100.00
35226;BME280;21813;49.686;21.766;2023-02-13T01:00:24;100322.91;;;-3.89;100.00
35226;BME280;21813;49.686;21.766;2023-02-13T01:03:31;100307.59;;;-3.90;100.00
35226;BME280;21813;49.686;21.766;2023-02-13T01:06:09;100318.66;;;-3.87;100.00
35226;BME280;21813;49.686;21.766;2023-02-13T01:09:03;100312.75;;;-3.84;100.00
35226;BME280;21813;49.686;21.766;2023-02-13T01:11:31;100305.09;;;-3.84;100.00
35226;BME280;21813;49.686;21.766;2023-02-13T01:13:56;100306.78;;;-3.85;100.00
35226;BME280;21813;49.686;21.766;2023-02-13T01:16:25;100307.59;;;-3.87;100.00
35226;BME280;21813;49.686;21.766;2023-02-13T01:18:51;100309.34;;;-3.83;100.00
35226;BME280;21813;49.686;21.766;2023-02-13T01:21:22;100310.19;;;-3.83;100.00
35226;BME280;21813;49.686;21.766;2023-02-13T01:23:52;100300.84;;;-3.85;100.00
35226;BME280;21813;49.686;21.766;2023-02-13T01:26:22;100283.78;;;-3.92;100.00
35226;BME280;21813;49.686;21.766;2023-02-13T01:28:51;100301.69;;;-3.85;100.00
35226;BME280;21813;49.686;21.766;2023-02-13T01:31:23;100290.66;;;-3.85;100.00
35226;BME280;21813;49.686;21.766;2023-02-13T01:33:51;100285.56;;;-3.82;100.00
35226;BME280;21813;49.686;21.766;2023-02-13T01:36:35;100285.63;;;-3.79;100.00
35226;BME280;21813;49.686;21.766;2023-02-13T01:39:24;100285.66;;;-3.73;100.00
35226;BME280;21813;49.686;21.766;2023-02-13T01:42:32;100288.28;;;-3.63;100.00
35226;BME280;21813;49.686;21.766;2023-02-13T01:45:05;100278.97;;;-3.62;100.00
35226;BME280;21813;49.686;21.766;2023-02-13T01:50:43;100271.38;;;-3.56;100.00
35226;BME280;21813;49.686;21.766;2023-02-13T01:56:45;100265.38;;;-3.61;100.00
35226;BME280;21813;49.686;21.766;2023-02-13T01:59:24;100262.81;;;-3.66;100.00
35226;BME280;21813;49.686;21.766;2023-02-13T02:01:57;100267.03;;;-3.66;100.00
35226;BME280;21813;49.686;21.766;2023-02-13T02:05:03;100262.78;;;-3.70;100.00
35226;BME280;21813;49.686;21.766;2023-02-13T02:07:37;100273.84;;;-3.64;100.00
35226;BME280;21813;49.686;21.766;2023-02-13T02:13:43;100272.16;;;-3.62;100.00
35226;BME280;21813;49.686;21.766;2023-02-13T02:16:19;100250.06;;;-3.64;100.00
35226;BME280;21813;49.686;21.766;2023-02-13T02:18:46;100245.81;;;-3.64;100.00
35226;BME280;21813;49.686;21.766;2023-02-13T02:36:27;100246.84;;;-3.39;100.00
35226;BME280;21813;49.686;21.766;2023-02-13T02:44:54;100238.38;;;-3.33;100.00
35226;BME280;21813;49.686;21.766;2023-02-13T02:47:26;100243.47;;;-3.32;100.00
35226;BME280;21813;49.686;21.766;2023-02-13T02:50:41;100240.09;;;-3.31;100.00
35226;BME280;21813;49.686;21.766;2023-02-13T02:53:32;100248.59;;;-3.29;100.00
35226;BME280;21813;49.686;21.766;2023-02-13T02:56:25;100240.09;;;-3.31;100.00
35226;BME280;21813;49.686;21.766;2023-02-13T02:59:03;100257.94;;;-3.29;100.00
35226;BME280;21813;49.686;21.766;2023-02-13T03:01:52;100255.38;;;-3.32;100.00
35226;BME280;21813;49.686;21.766;2023-02-13T03:04:40;100248.59;;;-3.33;100.00
35226;BME280;21813;49.686;21.766;2023-02-13T03:07:26;100253.66;;;-3.32;100.00
35226;BME280;21813;49.686;21.766;2023-02-13T03:09:57;100249.41;;;-3.36;100.00
35226;BME280;21813;49.686;21.766;2023-02-13T03:12:50;100257.03;;;-3.37;100.00
35226;BME280;21813;49.686;21.766;2023-02-13T03:15:37;100248.50;;;-3.41;100.00
35226;BME280;21813;49.686;21.766;2023-02-13T03:18:27;100252.78;;;-3.38;100.00
35226;BME280;21813;49.686;21.766;2023-02-13T03:21:25;100243.41;;;-3.41;100.00
35226;BME280;21813;49.686;21.766;2023-02-13T03:37:00;100247.75;;;-3.26;100.00
35226;BME280;21813;49.686;21.766;2023-02-13T03:43:13;100246.94;;;-3.21;100.00
35226;BME280;21813;49.686;21.766;2023-02-13T03:45:45;100255.47;;;-3.14;100.00
35226;BME280;21813;49.686;21.766;2023-02-13T03:48:29;100244.44;;;-3.13;100.00
35226;BME280;21813;49.686;21.766;2023-02-13T04:08:18;100255.63;;;-2.85;100.00
35226;BME280;21813;49.686;21.766;2023-02-13T04:11:08;100254.78;;;-2.80;100.00
35226;BME280;21813;49.686;21.766;2023-02-13T04:18:55;100244.59;;;-2.72;100.00
35226;BME280;21813;49.686;21.766;2023-02-13T04:21:33;100239.50;;;-2.72;100.00
35226;BME280;21813;49.686;21.766;2023-02-13T04:24:00;100239.50;;;-2.72;100.00
35226;BME280;21813;49.686;21.766;2023-02-13T04:26:34;100230.16;;;-2.73;100.00
35226;BME280;21813;49.686;21.766;2023-02-13T04:50:04;100237.88;;;-2.43;100.00
35226;BME280;21813;49.686;21.766;2023-02-13T04:52:52;100240.47;;;-2.37;100.00
35226;BME280;21813;49.686;21.766;2023-02-13T04:59:14;100229.41;;;-2.33;100.00
35226;BME280;21813;49.686;21.766;2023-02-13T05:02:11;100215.78;;;-2.38;100.00
35226;BME280;21813;49.686;21.766;2023-02-13T05:05:25;100216.63;;;-2.33;100.00
35226;BME280;21813;49.686;21.766;2023-02-13T05:07:51;100220.03;;;-2.31;100.00
35226;BME280;21813;49.686;21.766;2023-02-13T05:10:17;100221.72;;;-2.36;100.00
35226;BME280;21813;49.686;21.766;2023-02-13T05:12:43;100214.94;;;-2.34;100.00
35226;BME280;21813;49.686;21.766;2023-02-13T05:15:12;100226.84;;;-2.30;100.00
35226;BME280;21813;49.686;21.766;2023-02-13T05:17:37;100230.25;;;-2.31;100.00
35226;BME280;21813;49.686;21.766;2023-02-13T05:20:05;100226.84;;;-2.33;100.00
35226;BME280;21813;49.686;21.766;2023-02-13T05:22:31;100226.84;;;-2.30;100.00
35226;BME280;21813;49.686;21.766;2023-02-13T05:25:16;100231.97;;;-2.27;100.00
35226;BME280;21813;49.686;21.766;2023-02-13T05:27:42;100226.88;;;-2.27;100.00
35226;BME280;21813;49.686;21.766;2023-02-13T05:30:10;100237.09;;;-2.24;100.00
35226;BME280;21813;49.686;21.766;2023-02-13T05:32:36;100237.09;;;-2.22;100.00
35226;BME280;21813;49.686;21.766;2023-02-13T05:35:04;100247.31;;;-2.17;100.00
35226;BME280;21813;49.686;21.766;2023-02-13T05:37:30;100238.78;;;-2.19;100.00
35226;BME280;21813;49.686;21.766;2023-02-13T05:39:57;100231.97;;;-2.20;100.00
35226;BME280;21813;49.686;21.766;2023-02-13T05:42:22;100239.63;;;-2.16;100.00
35226;BME280;21813;49.686;21.766;2023-02-13T05:44:50;100237.94;;;-2.20;100.00
35226;BME280;21813;49.686;21.766;2023-02-13T05:47:16;100236.22;;;-2.21;100.00
35226;BME280;21813;49.686;21.766;2023-02-13T05:49:44;100243.06;;;-2.14;100.00
35226;BME280;21813;49.686;21.766;2023-02-13T05:52:10;100237.09;;;-2.14;100.00
35226;BME280;21813;49.686;21.766;2023-02-13T05:54:37;100240.47;;;-2.08;100.00
35226;BME280;21813;49.686;21.766;2023-02-13T05:57:13;100242.22;;;-2.04;100.00
35226;BME280;21813;49.686;21.766;2023-02-13T05:59:40;100238.81;;;-2.01;100.00
35226;BME280;21813;49.686;21.766;2023-02-13T06:02:05;100235.41;;;-2.00;100.00
35226;BME280;21813;49.686;21.766;2023-02-13T06:04:35;100243.91;;;-1.94;100.00
35226;BME280;21813;49.686;21.766;2023-02-13T06:07:03;100243.91;;;-1.89;100.00
35226;BME280;21813;49.686;21.766;2023-02-13T06:09:30;100245.63;;;-1.87;100.00
35226;BME280;21813;49.686;21.766;2023-02-13T06:11:56;100237.09;;;-1.87;100.00
35226;BME280;21813;49.686;21.766;2023-02-13T06:14:23;100244.78;;;-1.83;100.00
35226;BME280;21813;49.686;21.766;2023-02-13T06:16:49;100249.88;;;-1.81;100.00
35226;BME280;21813;49.686;21.766;2023-02-13T06:19:16;100241.38;;;-1.82;100.00
35226;BME280;21813;49.686;21.766;2023-02-13T06:21:41;100247.31;;;-1.78;100.00
35226;BME280;21813;49.686;21.766;2023-02-13T06:24:10;100243.91;;;-1.79;100.00
35226;BME280;21813;49.686;21.766;2023-02-13T06:26:35;100246.47;;;-1.72;100.00
35226;BME280;21813;49.686;21.766;2023-02-13T06:29:29;100249.88;;;-1.67;100.00
35226;BME280;21813;49.686;21.766;2023-02-13T06:32:05;100241.34;;;-1.66;100.00
35226;BME280;21813;49.686;21.766;2023-02-13T06:35:02;100252.44;;;-1.60;100.00
35226;BME280;21813;49.686;21.766;2023-02-13T06:38:13;100238.81;;;-1.62;100.00
35226;BME280;21813;49.686;21.766;2023-02-13T06:41:01;100252.41;;;-1.57;100.00
35226;BME280;21813;49.686;21.766;2023-02-13T06:44:02;100244.75;;;-1.57;100.00
35226;BME280;21813;49.686;21.766;2023-02-13T06:46:39;100249.00;;;-1.50;100.00
35226;BME280;21813;49.686;21.766;2023-02-13T06:49:04;100247.28;;;-1.48;100.00
35226;BME280;21813;49.686;21.766;2023-02-13T06:51:30;100240.47;;;-1.46;100.00
35226;BME280;21813;49.686;21.766;2023-02-13T06:53:55;100247.28;;;-1.39;100.00
35226;BME280;21813;49.686;21.766;2023-02-13T06:56:22;100246.44;;;-1.35;100.00
35226;BME280;21813;49.686;21.766;2023-02-13T06:58:47;100251.53;;;-1.31;100.00
35226;BME280;21813;49.686;21.766;2023-02-13T07:01:13;100248.97;;;-1.28;100.00
35226;BME280;21813;49.686;21.766;2023-02-13T07:03:39;100244.72;;;-1.26;100.00
35226;BME280;21813;49.686;21.766;2023-02-13T07:06:08;100248.97;;;-1.22;100.00
35226;BME280;21813;49.686;21.766;2023-02-13T07:08:33;100248.94;;;-1.19;100.00
35226;BME280;21813;49.686;21.766;2023-02-13T07:11:05;100245.53;;;-1.17;100.00
35226;BME280;21813;49.686;21.766;2023-02-13T07:13:33;100248.09;;;-1.14;100.00
35226;BME280;21813;49.686;21.766;2023-02-13T07:16:00;100246.38;;;-1.09;100.00
35226;BME280;21813;49.686;21.766;2023-02-13T07:18:25;100248.91;;;-1.04;100.00
35226;BME280;21813;49.686;21.766;2023-02-13T07:20:51;100250.59;;;-1.00;100.00
35226;BME280;21813;49.686;21.766;2023-02-13T07:23:17;100247.19;;;-0.98;100.00
35226;BME280;21813;49.686;21.766;2023-02-13T07:25:43;100245.44;;;-0.91;100.00
35226;BME280;21813;49.686;21.766;2023-02-13T07:28:09;100248.00;;;-0.83;100.00
35226;BME280;21813;49.686;21.766;2023-02-13T07:30:35;100247.09;;;-0.78;100.00
35226;BME280;21813;49.686;21.766;2023-02-13T07:33:01;100239.41;;;-0.72;100.00
35226;BME280;21813;49.686;21.766;2023-02-13T07:35:27;100241.09;;;-0.66;100.00
35226;BME280;21813;49.686;21.766;2023-02-13T07:37:53;100237.66;;;-0.61;100.00
35226;BME280;21813;49.686;21.766;2023-02-13T07:40:20;100235.06;;;-0.58;100.00
35226;BME280;21813;49.686;21.766;2023-02-13T07:42:45;100236.72;;;-0.51;100.00
35226;BME280;21813;49.686;21.766;2023-02-13T07:45:11;100240.97;;;-0.43;100.00
35226;BME280;21813;49.686;21.766;2023-02-13T07:47:39;100236.66;;;-0.35;100.00
35226;BME280;21813;49.686;21.766;2023-02-13T07:50:06;100241.72;;;-0.26;100.00
35226;BME280;21813;49.686;21.766;2023-02-13T07:52:32;100242.53;;;-0.20;100.00
35226;BME280;21813;49.686;21.766;2023-02-13T07:54:58;100251.91;;;-0.14;100.00
35226;BME280;21813;49.686;21.766;2023-02-13T07:57:23;100245.00;;;-0.06;100.00
35226;BME280;21813;49.686;21.766;2023-02-13T07:59:50;100235.53;;;0.00;100.00
35226;BME280;21813;49.686;21.766;2023-02-13T08:02:19;100241.53;;;0.04;100.00
35226;BME280;21813;49.686;21.766;2023-02-13T08:04:45;100239.75;;;0.12;100.00
35226;BME280;21813;49.686;21.766;2023-02-13T08:07:12;100239.69;;;0.18;100.00
35226;BME280;21813;49.686;21.766;2023-02-13T08:09:38;100227.69;;;0.22;100.00
35226;BME280;21813;49.686;21.766;2023-02-13T08:12:22;100241.25;;;0.34;100.00
35226;BME280;21813;49.686;21.766;2023-02-13T08:14:48;100229.25;;;0.39;100.00
35226;BME280;21813;49.686;21.766;2023-02-13T08:17:14;100229.22;;;0.46;100.00
35226;BME280;21813;49.686;21.766;2023-02-13T08:19:40;100233.44;;;0.47;100.00
35226;BME280;21813;49.686;21.766;2023-02-13T08:22:05;100231.72;;;0.50;100.00
35226;BME280;21813;49.686;21.766;2023-02-13T08:24:32;100233.41;;;0.53;100.00
35226;BME280;21813;49.686;21.766;2023-02-13T08:26:57;100240.19;;;0.57;100.00
35226;BME280;21813;49.686;21.766;2023-02-13T08:29:23;100234.16;;;0.61;100.00
35226;BME280;21813;49.686;21.766;2023-02-13T08:31:49;100237.53;;;0.67;100.00
35226;BME280;21813;49.686;21.766;2023-02-13T08:34:15;100237.44;;;0.75;100.00
35226;BME280;21813;49.686;21.766;2023-02-13T08:36:40;100242.47;;;0.84;100.00
35226;BME280;21813;49.686;21.766;2023-02-13T08:39:08;100239.00;;;0.91;100.00
35226;BME280;21813;49.686;21.766;2023-02-13T08:41:34;100232.91;;;0.98;100.00
35226;BME280;21813;49.686;21.766;2023-02-13T08:44:00;100235.38;;;1.07;100.00
35226;BME280;21813;49.686;21.766;2023-02-13T08:46:25;100229.28;;;1.16;100.00
35226;BME280;21813;49.686;21.766;2023-02-13T08:48:51;100224.94;;;1.22;100.00
35226;BME280;21813;49.686;21.766;2023-02-13T08:51:17;100233.38;;;1.30;100.00
35226;BME280;21813;49.686;21.766;2023-02-13T08:53:43;100231.53;;;1.40;100.00
35226;BME280;21813;49.686;21.766;2023-02-13T08:56:09;100231.47;;;1.48;100.00
35226;BME280;21813;49.686;21.766;2023-02-13T08:58:37;100229.63;;;1.56;100.00
35226;BME280;21813;49.686;21.766;2023-02-13T09:01:06;100222.66;;;1.64;100.00
35226;BME280;21813;49.686;21.766;2023-02-13T09:03:33;100226.81;;;1.74;100.00
35226;BME280;21813;49.686;21.766;2023-02-13T09:06:00;100232.63;;;1.85;100.00
35226;BME280;21813;49.686;21.766;2023-02-13T09:08:26;100229.03;;;1.97;100.00
35226;BME280;21813;49.686;21.766;2023-02-13T09:10:59;100223.75;;;2.04;100.00
35226;BME280;21813;49.686;21.766;2023-02-13T09:13:28;100228.81;;;2.10;100.00
35226;BME280;21813;49.686;21.766;2023-02-13T09:15:55;100225.31;;;2.14;100.00
35226;BME280;21813;49.686;21.766;2023-02-13T09:18:21;100233.75;;;2.22;100.00
35226;BME280;21813;49.686;21.766;2023-02-13T09:20:47;100226.78;;;2.31;100.00
35226;BME280;21813;49.686;21.766;2023-02-13T09:23:13;100218.13;;;2.35;100.00
35226;BME280;21813;49.686;21.766;2023-02-13T09:25:38;100218.91;;;2.40;100.00
35226;BME280;21813;49.686;21.766;2023-02-13T09:28:04;100214.41;;;2.51;100.00
35226;BME280;21813;49.686;21.766;2023-02-13T09:30:30;100215.16;;;2.57;100.00
35226;BME280;21813;49.686;21.766;2023-02-13T09:32:55;100213.28;;;2.65;100.00
35226;BME280;21813;49.686;21.766;2023-02-13T09:35:22;100207.16;;;2.73;100.00
35226;BME280;21813;49.686;21.766;2023-02-13T09:37:48;100213.84;;;2.81;100.00
35226;BME280;21813;49.686;21.766;2023-02-13T09:40:22;100206.84;;;2.88;100.00
35226;BME280;21813;49.686;21.766;2023-02-13T09:42:50;100208.47;;;2.93;100.00
35226;BME280;21813;49.686;21.766;2023-02-13T09:45:19;100211.78;;;2.98;100.00
35226;BME280;21813;49.686;21.766;2023-02-13T09:47:46;100215.19;;;3.00;100.00
35226;BME280;21813;49.686;21.766;2023-02-13T09:50:18;100218.56;;;3.02;100.00
35226;BME280;21813;49.686;21.766;2023-02-13T09:52:48;100220.28;;;3.03;100.00
35226;BME280;21813;49.686;21.766;2023-02-13T09:55:25;100216.75;;;3.07;100.00
35226;BME280;21813;49.686;21.766;2023-02-13T09:57:59;100200.44;;;3.08;100.00
35226;BME280;21813;49.686;21.766;2023-02-13T10:00:38;100202.03;;;3.14;100.00
35226;BME280;21813;49.686;21.766;2023-02-13T10:03:17;100197.69;;;3.16;100.00
35226;BME280;21813;49.686;21.766;2023-02-13T10:05:57;100198.44;;;3.21;100.00
35226;BME280;21813;49.686;21.766;2023-02-13T10:08:46;100195.00;;;3.22;100.00
35226;BME280;21813;49.686;21.766;2023-02-13T10:11:37;100202.63;;;3.27;100.00
35226;BME280;21813;49.686;21.766;2023-02-13T10:16:51;100180.13;;;3.35;100.00
35226;BME280;21813;49.686;21.766;2023-02-13T10:21:57;100164.44;;;3.44;100.00
35226;BME280;21813;49.686;21.766;2023-02-13T10:26:55;100169.53;;;3.47;100.00
35226;BME280;21813;49.686;21.766;2023-02-13T10:29:35;100160.91;;;3.48;100.00
35226;BME280;21813;49.686;21.766;2023-02-13T10:32:26;100160.06;;;3.47;100.00
35226;BME280;21813;49.686;21.766;2023-02-13T10:34:57;100152.38;;;3.46;100.00
35226;BME280;21813;49.686;21.766;2023-02-13T10:37:23;100148.91;;;3.47;100.00
35226;BME280;21813;49.686;21.766;2023-02-13T10:39:51;100154.06;;;3.47;100.00
35226;BME280;21813;49.686;21.766;2023-02-13T10:42:43;100148.78;;;3.53;100.00
35226;BME280;21813;49.686;21.766;2023-02-13T10:48:40;100141.28;;;3.79;100.00
35226;BME280;21813;49.686;21.766;2023-02-13T10:51:07;100140.16;;;3.91;100.00
35226;BME280;21813;49.686;21.766;2023-02-13T10:56:37;100145.69;;;4.10;100.00
35226;BME280;21813;49.686;21.766;2023-02-13T10:59:47;100141.19;;;4.18;100.00
35226;BME280;21813;49.686;21.766;2023-02-13T11:02:29;100129.13;;;4.18;100.00
35226;BME280;21813;49.686;21.766;2023-02-13T11:05:17;100131.50;;;4.26;100.00
35226;BME280;21813;49.686;21.766;2023-02-13T11:07:46;100133.81;;;4.36;100.00
35226;BME280;21813;49.686;21.766;2023-02-13T11:10:20;100132.06;;;4.37;100.00
35226;BME280;21813;49.686;21.766;2023-02-13T11:12:48;100137.22;;;4.38;100.00
35226;BME280;21813;49.686;21.766;2023-02-13T11:15:21;100135.53;;;4.36;100.00
35226;BME280;21813;49.686;21.766;2023-02-13T11:17:50;100135.59;;;4.34;100.00
35226;BME280;21813;49.686;21.766;2023-02-13T11:28:28;100137.09;;;4.43;100.00
35226;BME280;21813;49.686;21.766;2023-02-13T11:33:51;100126.78;;;4.41;100.00
35226;BME280;21813;49.686;21.766;2023-02-13T11:36:29;100132.72;;;4.45;100.00
35226;BME280;21813;49.686;21.766;2023-02-13T11:39:04;100133.53;;;4.47;100.00
35226;BME280;21813;49.686;21.766;2023-02-13T11:41:35;100133.44;;;4.50;100.00
35226;BME280;21813;49.686;21.766;2023-02-13T11:44:02;100125.63;;;4.53;100.00
35226;BME280;21813;49.686;21.766;2023-02-13T11:46:42;100119.53;;;4.56;100.00
35226;BME280;21813;49.686;21.766;2023-02-13T11:49:18;100122.81;;;4.61;100.00
35226;BME280;21813;49.686;21.766;2023-02-13T11:51:55;100120.22;;;4.62;100.00
35226;BME280;21813;49.686;21.766;2023-02-13T11:54:44;100114.84;;;4.68;100.00
35226;BME280;21813;49.686;21.766;2023-02-13T11:57:20;100123.41;;;4.70;100.00
35226;BME280;21813;49.686;21.766;2023-02-13T11:59:50;100115.56;;;4.73;100.00
35226;BME280;21813;49.686;21.766;2023-02-13T12:04:44;100111.22;;;4.75;100.00
35226;BME280;21813;49.686;21.766;2023-02-13T12:07:23;100112.91;;;4.76;100.00
35226;BME280;21813;49.686;21.766;2023-02-13T12:10:00;100119.75;;;4.77;100.00
35226;BME280;21813;49.686;21.766;2023-02-13T12:13:13;100118.78;;;4.81;100.00
35226;BME280;21813;49.686;21.766;2023-02-13T12:15:40;100121.28;;;4.84;100.00
35226;BME280;21813;49.686;21.766;2023-02-13T12:20:47;100112.56;;;4.88;100.00
35226;BME280;21813;49.686;21.766;2023-02-13T12:26:36;100107.16;;;4.96;100.00
35226;BME280;21813;49.686;21.766;2023-02-13T12:29:30;100095.94;;;4.97;100.00
35226;BME280;21813;49.686;21.766;2023-02-13T12:35:00;100110.44;;;5.03;100.00
35226;BME280;21813;49.686;21.766;2023-02-13T12:48:31;100099.09;;;5.07;100.00
35226;BME280;21813;49.686;21.766;2023-02-13T12:54:13;100092.34;;;5.03;100.00
35226;BME280;21813;49.686;21.766;2023-02-13T13:08:25;100074.44;;;4.97;100.00
35226;BME280;21813;49.686;21.766;2023-02-13T13:14:06;100070.25;;;4.93;100.00
35226;BME280;21813;49.686;21.766;2023-02-13T13:16:50;100070.25;;;4.93;100.00
35226;BME280;21813;49.686;21.766;2023-02-13T13:22:20;100064.38;;;4.87;100.00
35226;BME280;21813;49.686;21.766;2023-02-13T13:25:17;100059.19;;;4.87;100.00
35226;BME280;21813;49.686;21.766;2023-02-13T13:27:51;100065.97;;;4.92;100.00
35226;BME280;21813;49.686;21.766;2023-02-13T13:30:24;100062.38;;;4.96;100.00
35226;BME280;21813;49.686;21.766;2023-02-13T13:33:02;100052.06;;;4.96;100.00
35226;BME280;21813;49.686;21.766;2023-02-13T13:35:29;100054.59;;;4.97;100.00
35226;BME280;21813;49.686;21.766;2023-02-13T13:38:23;100049.44;;;4.97;100.00
35226;BME280;21813;49.686;21.766;2023-02-13T13:41:03;100056.19;;;5.01;100.00
35226;BME280;21813;49.686;21.766;2023-02-13T13:43:47;100057.91;;;5.02;100.00
35226;BME280;21813;49.686;21.766;2023-02-13T13:46:28;100049.47;;;4.96;100.00
35226;BME280;21813;49.686;21.766;2023-02-13T13:49:45;100059.03;;;4.94;100.00
35226;BME280;21813;49.686;21.766;2023-02-13T13:53:23;100061.75;;;4.89;100.00
35226;BME280;21813;49.686;21.766;2023-02-13T13:58:41;100054.41;;;4.75;100.00
35226;BME280;21813;49.686;21.766;2023-02-13T14:03:59;100051.19;;;4.67;100.00
35226;BME280;21813;49.686;21.766;2023-02-13T14:06:26;100055.66;;;4.62;100.00
35226;BME280;21813;49.686;21.766;2023-02-13T14:09:06;100050.56;;;4.59;100.00
35226;BME280;21813;49.686;21.766;2023-02-13T14:16:53;100024.47;;;4.39;100.00
35226;BME280;21813;49.686;21.766;2023-02-13T14:19:42;100028.72;;;4.40;100.00
35226;BME280;21813;49.686;21.766;2023-02-13T14:24:52;100029.91;;;4.30;100.00
35226;BME280;21813;49.686;21.766;2023-02-13T14:29:57;100027.56;;;4.21;100.00
35226;BME280;21813;49.686;21.766;2023-02-13T14:32:31;100018.19;;;4.17;100.00
35226;BME280;21813;49.686;21.766;2023-02-13T14:35:26;100020.88;;;4.14;100.00
35226;BME280;21813;49.686;21.766;2023-02-13T14:37:54;100015.84;;;4.09;100.00
35226;BME280;21813;49.686;21.766;2023-02-13T14:40:45;100021.22;;;4.02;100.00
35226;BME280;21813;49.686;21.766;2023-02-13T14:46:07;100012.91;;;3.90;100.00
35226;BME280;21813;49.686;21.766;2023-02-13T14:48:55;100012.03;;;3.91;100.00
35226;BME280;21813;49.686;21.766;2023-02-13T14:51:48;100007.84;;;3.87;100.00
35226;BME280;21813;49.686;21.766;2023-02-13T14:54:25;100008.72;;;3.86;100.00
35226;BME280;21813;49.686;21.766;2023-02-13T14:57:04;100007.91;;;3.84;100.00
35226;BME280;21813;49.686;21.766;2023-02-13T15:03:12;99999.41;;;3.81;100.00
35226;BME280;21813;49.686;21.766;2023-02-13T15:05:50;99997.03;;;3.73;100.00
35226;BME280;21813;49.686;21.766;2023-02-13T15:09:02;100001.31;;;3.74;100.00
35226;BME280;21813;49.686;21.766;2023-02-13T15:12:28;99988.56;;;3.70;100.00
35226;BME280;21813;49.686;21.766;2023-02-13T15:14:54;99988.66;;;3.65;100.00
35226;BME280;21813;49.686;21.766;2023-02-13T15:17:32;99988.72;;;3.62;100.00
35226;BME280;21813;49.686;21.766;2023-02-13T15:20:26;99991.25;;;3.65;100.00
35226;BME280;21813;49.686;21.766;2023-02-13T15:22:56;99994.63;;;3.66;100.00
35226;BME280;21813;49.686;21.766;2023-02-13T15:27:59;99986.34;;;3.54;100.00
35226;BME280;21813;49.686;21.766;2023-02-13T15:30:35;99982.91;;;3.55;100.00
35226;BME280;21813;49.686;21.766;2023-02-13T15:33:19;99981.22;;;3.53;100.00
35226;BME280;21813;49.686;21.766;2023-02-13T15:35:46;99990.66;;;3.54;100.00
35226;BME280;21813;49.686;21.766;2023-02-13T15:38:28;99980.34;;;3.54;100.00
35226;BME280;21813;49.686;21.766;2023-02-13T15:43:47;99983.91;;;3.50;100.00
35226;BME280;21813;49.686;21.766;2023-02-13T15:46:28;99982.19;;;3.49;100.00
35226;BME280;21813;49.686;21.766;2023-02-13T15:48:58;99974.59;;;3.43;100.00
35226;BME280;21813;49.686;21.766;2023-02-13T15:51:27;99990.91;;;3.45;100.00
35226;BME280;21813;49.686;21.766;2023-02-13T15:54:00;99969.56;;;3.38;100.00
35226;BME280;21813;49.686;21.766;2023-02-13T15:56:27;99973.81;;;3.41;100.00
35226;BME280;21813;49.686;21.766;2023-02-13T15:58:58;99978.97;;;3.41;100.00
35226;BME280;21813;49.686;21.766;2023-02-13T16:01:42;99973.06;;;3.37;100.00
35226;BME280;21813;49.686;21.766;2023-02-13T16:04:35;99973.94;;;3.36;100.00
35226;BME280;21813;49.686;21.766;2023-02-13T16:07:01;99967.19;;;3.31;100.00
35226;BME280;21813;49.686;21.766;2023-02-13T16:16:48;99976.63;;;3.32;100.00
35226;BME280;21813;49.686;21.766;2023-02-13T16:22:16;99985.31;;;3.28;100.00
35226;BME280;21813;49.686;21.766;2023-02-13T16:24:50;99982.81;;;3.25;100.00
35226;BME280;21813;49.686;21.766;2023-02-13T16:27:22;99986.19;;;3.27;100.00
35226;BME280;21813;49.686;21.766;2023-02-13T16:29:55;99981.91;;;3.26;100.00
35226;BME280;21813;49.686;21.766;2023-02-13T16:32:31;99988.81;;;3.25;100.00
35226;BME280;21813;49.686;21.766;2023-02-13T16:37:52;99963.88;;;3.26;100.00
35226;BME280;21813;49.686;21.766;2023-02-13T16:40:41;99958.72;;;3.26;100.00
35226;BME280;21813;49.686;21.766;2023-02-13T16:46:30;99961.31;;;3.26;100.00
35226;BME280;21813;49.686;21.766;2023-02-13T16:56:40;99943.50;;;3.17;100.00
35226;BME280;21813;49.686;21.766;2023-02-13T16:59:28;99947.72;;;3.19;100.00
35226;BME280;21813;49.686;21.766;2023-02-13T17:02:22;99928.13;;;3.14;100.00